createdAt,value
2018-04-26T00:01:20.125Z,5.83
2018-04-26T00:03:46.569Z,6.10
2018-04-26T00:06:12.908Z,6.03
2018-04-26T00:08:39.408Z,6.20
2018-04-26T00:11:05.655Z,5.70
2018-04-26T00:13:32.140Z,7.50
2018-04-26T00:15:58.416Z,6.20
2018-04-26T00:18:24.647Z,6.27
2018-04-26T00:20:51.252Z,6.33
2018-04-26T00:23:17.782Z,10.93
2018-04-26T00:25:44.103Z,6.30
2018-04-26T00:28:10.636Z,10.87
2018-04-26T00:30:37.038Z,6.57
2018-04-26T00:33:03.356Z,6.57
2018-04-26T00:35:29.742Z,6.47
2018-04-26T00:37:56.048Z,9.50
2018-04-26T00:40:22.590Z,6.57
2018-04-26T00:42:48.907Z,9.00
2018-04-26T00:45:15.450Z,6.10
2018-04-26T00:47:41.803Z,8.53
2018-04-26T00:50:08.204Z,7.80
2018-04-26T00:52:34.544Z,6.90
2018-04-26T00:55:00.812Z,7.93
2018-04-26T00:57:27.336Z,6.77
2018-04-26T00:59:53.623Z,8.10
2018-04-26T01:02:19.888Z,9.43
2018-04-26T01:04:46.776Z,7.20
2018-04-26T01:07:13.228Z,6.90
2018-04-26T01:09:39.569Z,7.37
2018-04-26T01:12:06.147Z,8.97
2018-04-26T01:14:32.420Z,7.60
2018-04-26T01:16:58.960Z,7.10
2018-04-26T01:19:25.308Z,7.43
2018-04-26T01:21:52.523Z,9.10
2018-04-26T01:24:19.053Z,6.57
2018-04-26T01:26:45.404Z,8.77
2018-04-26T01:29:11.800Z,7.40
2018-04-26T01:31:38.287Z,12.43
2018-04-26T01:34:04.585Z,9.90
2018-04-26T01:36:43.050Z,8.27
2018-04-26T01:39:09.535Z,8.20
2018-04-26T01:41:35.787Z,7.70
2018-04-26T01:44:02.149Z,7.07
2018-04-26T01:46:29.375Z,8.33
2018-04-26T01:48:55.636Z,8.93
2018-04-26T01:51:21.980Z,7.70
2018-04-26T01:53:48.328Z,9.80
2018-04-26T01:56:14.793Z,7.43
2018-04-26T01:58:41.073Z,9.57
2018-04-26T02:01:07.641Z,8.33
2018-04-26T02:03:33.946Z,6.87
2018-04-26T02:06:00.492Z,7.70
2018-04-26T02:08:27.639Z,8.33
2018-04-26T02:10:54.060Z,9.30
2018-04-26T02:13:20.472Z,8.93
2018-04-26T02:15:47.336Z,9.17
2018-04-26T02:18:13.603Z,14.20
2018-04-26T02:20:39.969Z,9.73
2018-04-26T02:23:06.576Z,9.57
2018-04-26T02:25:32.855Z,11.17
2018-04-26T02:27:59.132Z,12.20
2018-04-26T02:30:25.757Z,12.83
2018-04-26T02:32:52.019Z,10.80
2018-04-26T02:35:18.416Z,12.50
2018-04-26T02:37:44.699Z,12.10
2018-04-26T02:40:11.228Z,12.27
2018-04-26T02:45:02.296Z,9.13
2018-04-26T02:47:28.556Z,17.50
2018-04-26T02:49:54.917Z,10.17
2018-04-26T02:52:21.193Z,9.93
2018-04-26T02:54:47.602Z,12.70
2018-04-26T02:57:13.911Z,11.63
2018-04-26T02:59:40.279Z,11.73
2018-04-26T03:02:06.596Z,12.87
2018-04-26T03:04:32.975Z,17.97
2018-04-26T03:06:59.355Z,11.43
2018-04-26T03:09:25.688Z,10.43
2018-04-26T03:11:51.943Z,14.03
2018-04-26T03:14:18.205Z,12.47
2018-04-26T03:16:44.455Z,12.87
2018-04-26T03:19:10.666Z,13.33
2018-04-26T03:21:36.926Z,17.37
2018-04-26T03:24:03.178Z,13.67
2018-04-26T03:26:29.519Z,13.10
2018-04-26T03:28:55.827Z,11.90
2018-04-26T03:31:22.059Z,18.70
2018-04-26T03:33:48.287Z,11.90
2018-04-26T03:36:14.562Z,10.70
2018-04-26T03:38:40.782Z,12.83
2018-04-26T03:41:06.991Z,9.90
2018-04-26T03:43:33.252Z,10.70
2018-04-26T03:45:59.502Z,11.97
2018-04-26T03:48:25.735Z,10.57
2018-04-26T03:50:52.146Z,11.33
2018-04-26T03:53:18.374Z,10.57
2018-04-26T03:55:44.622Z,10.43
2018-04-26T03:58:10.884Z,11.97
2018-04-26T04:00:49.276Z,12.77
2018-04-26T04:03:27.771Z,17.50
2018-04-26T04:19:16.720Z,10.10
2018-04-26T04:21:42.938Z,10.47
2018-04-26T04:24:09.205Z,11.03
2018-04-26T04:26:35.491Z,13.40
2018-04-26T04:29:01.720Z,11.67
2018-04-26T04:31:27.943Z,16.77
2018-04-26T04:33:54.203Z,11.43
2018-04-26T04:36:20.431Z,8.97
2018-04-26T04:38:46.659Z,14.13
2018-04-26T04:41:12.923Z,8.73
2018-04-26T04:43:39.155Z,10.10
2018-04-26T04:46:05.398Z,9.40
2018-04-26T04:48:31.696Z,10.53
2018-04-26T04:50:57.967Z,14.17
2018-04-26T04:53:24.203Z,12.07
2018-04-26T04:55:50.519Z,16.23
2018-04-26T04:58:16.747Z,9.30
2018-04-26T05:00:42.991Z,10.23
2018-04-26T05:03:09.259Z,15.80
2018-04-26T05:05:35.497Z,9.30
2018-04-26T05:08:01.735Z,13.70
2018-04-26T05:10:28.007Z,9.43
2018-04-26T05:12:54.235Z,10.10
2018-04-26T05:15:20.463Z,12.33
2018-04-26T05:17:46.726Z,9.53
2018-04-26T05:20:12.955Z,15.97
2018-04-26T05:22:39.199Z,11.83
2018-04-26T05:25:05.462Z,10.50
2018-04-26T05:27:31.700Z,12.00
2018-04-26T05:29:58.018Z,15.70
2018-04-26T05:32:24.227Z,11.00
2018-04-26T05:34:50.469Z,12.33
2018-04-26T05:37:16.692Z,13.03
2018-04-26T05:39:43.051Z,12.90
2018-04-26T05:42:09.236Z,12.30
2018-04-26T05:44:35.515Z,12.47
2018-04-26T05:47:01.783Z,14.33
2018-04-26T05:49:28.027Z,18.27
2018-04-26T05:51:54.246Z,20.53
2018-04-26T05:54:20.512Z,11.87
2018-04-26T05:56:46.744Z,12.03
2018-04-26T05:59:12.975Z,12.97
2018-04-26T06:01:39.239Z,15.97
2018-04-26T06:04:05.466Z,10.20
2018-04-26T06:06:31.691Z,11.60
2018-04-26T06:08:57.976Z,9.83
2018-04-26T06:11:24.309Z,14.10
2018-04-26T06:13:50.483Z,10.70
2018-04-26T06:16:16.736Z,12.10
2018-04-26T06:18:42.955Z,14.50
2018-04-26T06:21:09.178Z,12.50
2018-04-26T06:23:35.435Z,11.50
2018-04-26T06:26:01.659Z,12.10
2018-04-26T06:28:27.883Z,12.33
2018-04-26T06:30:54.154Z,10.83
2018-04-26T06:33:20.388Z,11.97
2018-04-26T06:35:46.658Z,14.93
2018-04-26T06:38:12.916Z,12.87
2018-04-26T06:40:39.150Z,10.47
2018-04-26T06:43:05.377Z,9.30
2018-04-26T06:45:31.631Z,11.90
2018-04-26T06:47:57.876Z,8.97
2018-04-26T06:50:24.108Z,8.63
2018-04-26T06:52:50.371Z,8.97
2018-04-26T06:55:16.595Z,10.70
2018-04-26T06:57:42.815Z,8.47
2018-04-26T07:00:09.067Z,8.07
2018-04-26T07:02:35.289Z,7.47
2018-04-26T07:05:01.600Z,6.33
2018-04-26T07:07:27.791Z,5.60
2018-04-26T07:09:54.011Z,9.53
2018-04-26T07:12:20.243Z,12.87
2018-04-26T07:14:46.503Z,4.87
2018-04-26T07:17:12.721Z,4.77
2018-04-26T07:19:38.951Z,4.73
2018-04-26T07:22:05.210Z,6.17
2018-04-26T07:24:31.431Z,5.77
2018-04-26T07:26:57.655Z,6.77
2018-04-26T07:29:23.915Z,4.10
2018-04-26T07:31:50.146Z,4.50
2018-04-26T07:34:16.379Z,4.60
2018-04-26T07:36:42.651Z,4.37
2018-04-26T07:39:08.874Z,4.33
2018-04-26T07:41:35.106Z,4.67
2018-04-26T07:44:01.372Z,5.10
2018-04-26T07:46:27.640Z,2.90
2018-04-26T07:48:53.903Z,3.60
2018-04-26T07:51:20.154Z,2.87
2018-04-26T07:53:46.383Z,3.87
2018-04-26T07:56:12.619Z,4.13
2018-04-26T07:58:38.873Z,3.10
2018-04-26T08:01:05.116Z,6.53
2018-04-26T08:03:31.339Z,2.17
2018-04-26T08:05:57.605Z,2.33
2018-04-26T08:08:23.832Z,4.30
2018-04-26T08:10:50.091Z,1.30
2018-04-26T08:13:16.351Z,1.63
2018-04-26T08:15:42.585Z,1.73
2018-04-26T08:18:08.814Z,4.57
2018-04-26T08:20:35.074Z,1.67
2018-04-26T08:23:01.295Z,3.47
2018-04-26T08:25:27.520Z,3.03
2018-04-26T08:27:53.778Z,5.10
2018-04-26T08:30:20.016Z,1.27
2018-04-26T08:32:46.251Z,3.20
2018-04-26T08:35:12.517Z,5.43
2018-04-26T08:37:38.746Z,3.77
2018-04-26T08:40:05.003Z,1.27
2018-04-26T08:42:31.262Z,2.57
2018-04-26T08:44:57.520Z,1.57
2018-04-26T08:47:23.748Z,1.70
2018-04-26T08:49:50.007Z,1.50
2018-04-26T08:52:16.312Z,4.87
2018-04-26T08:54:42.491Z,4.10
2018-04-26T08:57:08.756Z,3.27
2018-04-26T08:59:34.978Z,1.77
2018-04-26T09:02:01.229Z,1.07
2018-04-26T09:04:27.485Z,2.13
2018-04-26T09:06:53.725Z,3.00
2018-04-26T09:09:19.950Z,2.50
2018-04-26T09:11:46.207Z,1.20
2018-04-26T09:14:12.748Z,1.83
2018-04-26T09:16:46.050Z,0.90
2018-04-26T09:19:12.278Z,1.10
2018-04-26T09:21:38.506Z,2.77
2018-04-26T09:24:11.827Z,1.10
2018-04-26T09:26:38.067Z,1.73
2018-04-26T09:29:04.300Z,1.30
2018-04-26T09:31:30.568Z,1.50
2018-04-26T09:33:56.799Z,1.50
2018-04-26T09:36:23.048Z,1.63
2018-04-26T09:38:49.342Z,5.43
2018-04-26T09:41:15.605Z,1.13
2018-04-26T09:43:41.851Z,0.87
2018-04-26T09:46:15.003Z,1.10
2018-04-26T09:48:41.235Z,3.53
2018-04-26T09:51:07.504Z,1.00
2018-04-26T09:53:33.767Z,3.40
2018-04-26T09:55:59.998Z,4.53
2018-04-26T09:58:26.278Z,0.97
2018-04-26T10:00:52.619Z,3.00
2018-04-26T10:03:18.849Z,2.30
2018-04-26T10:05:51.067Z,2.07
2018-04-26T10:08:17.388Z,2.93
2018-04-26T10:10:43.598Z,0.90
2018-04-26T10:13:09.827Z,2.30
2018-04-26T10:15:36.083Z,3.37
2018-04-26T10:18:02.332Z,2.13
2018-04-26T10:20:28.554Z,1.27
2018-04-26T10:22:54.802Z,3.40
2018-04-26T10:25:21.028Z,1.87
2018-04-26T10:27:47.250Z,2.63
2018-04-26T10:30:13.511Z,1.57
2018-04-26T10:32:39.747Z,2.43
2018-04-26T10:35:05.972Z,2.43
2018-04-26T10:37:32.235Z,1.47
2018-04-26T10:39:58.486Z,1.37
2018-04-26T10:42:24.719Z,1.73
2018-04-26T10:44:50.982Z,2.13
2018-04-26T10:47:17.219Z,2.20
2018-04-26T10:49:43.447Z,1.33
2018-04-26T10:52:09.702Z,0.80
2018-04-26T10:54:35.932Z,2.23
2018-04-26T10:57:02.170Z,2.43
2018-04-26T10:59:28.419Z,0.93
2018-04-26T11:01:54.645Z,2.43
2018-04-26T11:04:20.872Z,1.90
2018-04-26T11:06:47.126Z,0.90
2018-04-26T11:09:13.422Z,1.37
2018-04-26T11:11:39.666Z,2.37
2018-04-26T11:14:05.935Z,1.57
2018-04-26T11:16:32.175Z,1.43
2018-04-26T11:18:58.411Z,2.33
2018-04-26T11:21:24.727Z,0.97
2018-04-26T11:23:50.934Z,13.73
2018-04-26T11:26:17.191Z,1.00
2018-04-26T11:28:43.461Z,0.93
2018-04-26T11:31:09.758Z,1.33
2018-04-26T11:33:35.952Z,1.97
2018-04-26T11:36:02.236Z,1.80
2018-04-26T11:38:28.500Z,2.20
2018-04-26T11:40:54.717Z,0.90
2018-04-26T11:43:20.966Z,1.77
2018-04-26T11:45:47.207Z,1.80
2018-04-26T11:48:13.436Z,1.53
2018-04-26T11:50:39.694Z,1.60
2018-04-26T11:53:05.918Z,1.90
2018-04-26T11:55:32.147Z,1.10
2018-04-26T11:57:58.398Z,1.03
2018-04-26T12:00:24.631Z,1.83
2018-04-26T12:02:50.873Z,1.17
2018-04-26T12:05:17.142Z,1.50
2018-04-26T12:07:43.416Z,2.27
2018-04-26T12:10:09.662Z,1.70
2018-04-26T12:12:35.923Z,1.70
2018-04-26T12:15:02.149Z,4.33
2018-04-26T12:17:28.371Z,2.07
2018-04-26T12:19:54.643Z,2.60
2018-04-26T12:22:20.887Z,2.87
2018-04-26T12:24:47.138Z,1.92
2018-04-26T12:27:13.394Z,2.77
2018-04-26T12:29:39.635Z,3.03
2018-04-26T12:32:05.874Z,4.43
2018-04-26T12:34:32.143Z,1.87
2018-04-26T12:36:58.414Z,1.70
2018-04-26T12:39:24.651Z,0.77
2018-04-26T12:41:50.924Z,2.20
2018-04-26T12:44:17.148Z,6.27
2018-04-26T12:46:43.374Z,3.10
2018-04-26T12:49:09.643Z,1.83
2018-04-26T12:51:35.888Z,4.13
2018-04-26T12:54:02.123Z,2.00
2018-04-26T12:56:28.391Z,1.23
2018-04-26T12:58:54.614Z,1.40
2018-04-26T13:01:20.851Z,0.87
2018-04-26T13:03:47.107Z,1.53
2018-04-26T13:06:13.330Z,1.00
2018-04-26T13:08:39.555Z,1.73
2018-04-26T13:11:05.820Z,1.60
2018-04-26T13:13:32.040Z,2.00
2018-04-26T13:15:58.269Z,2.87
2018-04-26T13:18:24.524Z,2.57
2018-04-26T13:20:50.751Z,2.47
2018-04-26T13:23:16.972Z,2.70
2018-04-26T13:25:43.246Z,2.63
2018-04-26T13:28:09.470Z,3.03
2018-04-26T13:30:35.705Z,4.80
2018-04-26T13:33:01.983Z,6.40
2018-04-26T13:35:28.219Z,3.77
2018-04-26T13:37:54.459Z,2.70
2018-04-26T13:40:20.732Z,3.37
2018-04-26T13:42:46.975Z,1.77
2018-04-26T13:45:13.216Z,1.87
2018-04-26T13:47:39.480Z,3.60
2018-04-26T13:50:05.718Z,2.10
2018-04-26T13:52:31.951Z,2.10
2018-04-26T13:54:58.224Z,1.70
2018-04-26T13:57:24.459Z,1.57
2018-04-26T13:59:50.695Z,1.60
2018-04-26T14:02:17.155Z,1.40
2018-04-26T14:04:43.406Z,2.83
2018-04-26T14:07:09.675Z,1.90
2018-04-26T14:09:35.930Z,1.13
2018-04-26T14:12:02.185Z,1.37
2018-04-26T14:14:28.406Z,1.12
2018-04-26T14:16:54.667Z,1.80
2018-04-26T14:19:20.899Z,1.95
2018-04-26T14:21:47.123Z,1.40
2018-04-26T14:24:13.378Z,2.05
2018-04-26T14:26:39.614Z,2.40
2018-04-26T14:29:05.858Z,1.77
2018-04-26T14:31:32.115Z,1.73
2018-04-26T14:33:58.342Z,1.80
2018-04-26T14:36:24.565Z,1.43
2018-04-26T14:38:50.838Z,1.83
2018-04-26T14:41:17.079Z,1.50
2018-04-26T14:43:43.314Z,1.77
2018-04-26T14:46:09.575Z,2.17
2018-04-26T14:48:35.803Z,2.00
2018-04-26T14:51:02.043Z,1.33
2018-04-26T14:53:28.303Z,1.67
2018-04-26T14:55:54.533Z,1.73
2018-04-26T14:58:20.783Z,2.17
2018-04-26T15:00:47.039Z,2.33
2018-04-26T15:03:13.267Z,2.47
2018-04-26T15:05:39.486Z,2.63
2018-04-26T15:08:05.743Z,1.50
2018-04-26T15:10:32.042Z,1.40
2018-04-26T15:12:58.644Z,1.47
2018-04-26T15:15:24.954Z,1.80
2018-04-26T15:17:51.577Z,1.80
2018-04-26T15:20:17.985Z,1.60
2018-04-26T15:22:44.539Z,1.67
2018-04-26T15:25:10.903Z,1.80
2018-04-26T15:27:37.186Z,1.50
2018-04-26T15:30:03.811Z,1.87
2018-04-26T15:32:30.092Z,2.70
2018-04-26T15:34:56.483Z,1.87
2018-04-26T15:37:22.854Z,1.90
2018-04-26T15:39:49.223Z,2.27
2018-04-26T15:42:15.577Z,3.10
2018-04-26T15:44:41.854Z,1.97
2018-04-26T15:47:08.294Z,2.30
2018-04-26T15:49:34.546Z,2.03
2018-04-26T15:52:00.810Z,1.83
2018-04-26T15:54:36.214Z,2.70
2018-04-26T15:57:25.766Z,2.30
2018-04-26T16:00:04.331Z,2.30
2018-04-26T16:02:57.762Z,2.03
2018-04-26T16:05:38.041Z,2.23
2018-04-26T16:08:22.714Z,2.27
2018-04-26T16:11:07.458Z,2.70
2018-04-26T16:13:52.132Z,2.10
2018-04-26T16:16:36.819Z,2.40
2018-04-26T16:19:26.298Z,2.60
2018-04-26T16:22:10.907Z,2.90
2018-04-26T16:24:53.647Z,2.43
2018-04-26T16:27:38.983Z,2.13
2018-04-26T16:30:17.863Z,3.80
2018-04-26T16:33:02.502Z,3.07
2018-04-26T16:35:41.158Z,2.40
2018-04-26T16:38:19.817Z,2.37
2018-04-26T16:40:46.095Z,4.80
2018-04-26T16:43:12.412Z,2.10
2018-04-26T16:45:38.753Z,3.73
2018-04-26T16:48:05.170Z,2.47
2018-04-26T16:50:31.407Z,3.17
2018-04-26T16:52:57.832Z,3.70
2018-04-26T16:55:24.118Z,1.90
2018-04-26T16:57:50.527Z,2.10
2018-04-26T17:00:16.771Z,4.53
2018-04-26T17:02:43.345Z,1.70
2018-04-26T17:05:09.606Z,2.57
2018-04-26T17:07:35.971Z,3.40
2018-04-26T17:10:02.332Z,1.70
2018-04-26T17:12:28.766Z,3.70
2018-04-26T17:14:55.119Z,1.70
2018-04-26T17:17:21.379Z,2.43
2018-04-26T17:19:47.941Z,1.33
2018-04-26T17:22:14.244Z,2.20
2018-04-26T17:24:40.631Z,3.00
2018-04-26T17:27:07.000Z,4.23
2018-04-26T17:29:33.295Z,1.63
2018-04-26T17:31:59.771Z,2.87
2018-04-26T17:34:26.003Z,3.40
2018-04-26T17:36:52.482Z,2.37
2018-04-26T17:39:18.769Z,3.77
2018-04-26T17:41:45.180Z,3.60
2018-04-26T17:44:11.470Z,1.80
2018-04-26T17:46:37.798Z,2.30
2018-04-26T17:49:04.298Z,1.73
2018-04-26T17:51:30.616Z,2.10
2018-04-26T17:53:57.129Z,2.70
2018-04-26T17:56:23.439Z,3.57
2018-04-26T17:58:49.667Z,2.40
2018-04-26T18:01:15.936Z,2.93
2018-04-26T18:03:42.187Z,3.37
2018-04-26T18:06:08.446Z,2.00
2018-04-26T18:08:34.775Z,4.00
2018-04-26T18:11:01.043Z,2.53
2018-04-26T18:13:27.284Z,2.40
2018-04-26T18:15:53.632Z,4.50
2018-04-26T18:18:19.863Z,2.73
2018-04-26T18:20:46.308Z,2.83
2018-04-26T18:23:12.634Z,2.80
2018-04-26T18:25:39.131Z,2.60
2018-04-26T18:28:05.363Z,2.40
2018-04-26T18:30:31.712Z,3.43
2018-04-26T18:32:58.011Z,3.40
2018-04-26T18:35:24.275Z,2.60
2018-04-26T18:37:50.601Z,3.07
2018-04-26T18:40:16.847Z,4.57
2018-04-26T18:42:44.346Z,6.03
2018-04-26T18:45:10.715Z,2.83
2018-04-26T18:47:37.035Z,3.03
2018-04-26T18:50:03.366Z,2.57
2018-04-26T18:52:29.634Z,2.93
2018-04-26T18:54:56.017Z,4.10
2018-04-26T18:57:22.267Z,5.67
2018-04-26T18:59:48.578Z,3.20
2018-04-26T19:02:14.807Z,3.33
2018-04-26T19:04:41.129Z,2.80
2018-04-26T19:07:07.412Z,5.33
2018-04-26T19:09:33.701Z,3.20
2018-04-26T19:12:00.015Z,2.20
2018-04-26T19:14:26.348Z,3.27
2018-04-26T19:16:52.626Z,3.80
2018-04-26T19:19:18.876Z,3.00
2018-04-26T19:21:45.225Z,3.23
2018-04-26T19:24:11.478Z,4.70
2018-04-26T19:26:38.149Z,2.97
2018-04-26T19:29:04.647Z,5.60
2018-04-26T19:31:31.221Z,7.70
2018-04-26T19:33:57.522Z,3.80
2018-04-26T19:36:23.880Z,3.40
2018-04-26T19:38:50.320Z,2.60
2018-04-26T19:41:16.605Z,2.70
2018-04-26T19:43:42.867Z,3.43
2018-04-26T19:46:09.114Z,2.60
2018-04-26T19:48:35.355Z,2.53
2018-04-26T19:51:01.622Z,6.57
2018-04-26T19:53:27.878Z,2.70
2018-04-26T19:55:54.099Z,4.00
2018-04-26T19:58:20.367Z,7.07
2018-04-26T20:00:46.610Z,5.80
2018-04-26T20:03:12.920Z,3.43
2018-04-26T20:05:39.202Z,2.67
2018-04-26T20:08:05.440Z,3.43
2018-04-26T20:10:31.782Z,3.10
2018-04-26T20:12:58.050Z,3.20
2018-04-26T20:15:24.360Z,5.57
2018-04-26T20:17:50.590Z,3.20
2018-04-26T20:20:16.854Z,4.87
2018-04-26T20:22:43.098Z,6.63
2018-04-26T20:25:09.338Z,5.40
2018-04-26T20:27:35.615Z,4.57
2018-04-26T20:30:01.899Z,3.87
2018-04-26T20:32:28.139Z,6.53
2018-04-26T20:34:54.695Z,3.13
2018-04-26T20:37:21.151Z,3.17
2018-04-26T20:39:47.433Z,4.20
2018-04-26T20:42:13.899Z,2.83
2018-04-26T20:44:47.314Z,9.20
2018-04-26T20:47:13.639Z,6.13
2018-04-26T20:49:39.877Z,3.50
2018-04-26T20:52:06.311Z,4.80
2018-04-26T20:54:32.702Z,3.63
2018-04-26T20:56:58.986Z,3.07
2018-04-26T20:59:25.393Z,6.27
2018-04-26T21:01:51.711Z,5.07
2018-04-26T21:04:17.998Z,8.87
2018-04-26T21:06:44.672Z,4.63
2018-04-26T21:09:11.015Z,3.50
2018-04-26T21:11:37.259Z,3.60
2018-04-26T21:14:03.544Z,3.57
2018-04-26T21:16:30.042Z,3.53
2018-04-26T21:18:56.293Z,7.30
2018-04-26T21:21:22.538Z,3.87
2018-04-26T21:23:48.846Z,3.90
2018-04-26T21:26:15.159Z,4.70
2018-04-26T21:28:41.488Z,8.23
2018-04-26T21:31:07.717Z,3.53
2018-04-26T21:33:33.985Z,6.50
2018-04-26T21:36:00.239Z,3.80
2018-04-26T21:38:26.504Z,5.77
2018-04-26T21:40:52.903Z,3.27
2018-04-26T21:43:19.151Z,3.40
2018-04-26T21:45:45.506Z,3.97
2018-04-26T21:48:11.775Z,3.33
2018-04-26T21:50:44.239Z,4.90
2018-04-26T21:53:16.482Z,3.53
2018-04-26T21:55:48.971Z,7.40
2018-04-26T21:58:21.267Z,3.30
2018-04-26T22:00:53.518Z,5.23
2018-04-26T22:16:37.607Z,4.93
2018-04-26T22:19:03.846Z,3.67
2018-04-26T22:21:30.082Z,6.70
2018-04-26T22:23:56.339Z,2.73
2018-04-26T22:26:22.611Z,7.53
2018-04-26T22:28:48.867Z,2.87
2018-04-26T22:31:15.168Z,6.63
2018-04-26T22:33:41.395Z,3.53
2018-04-26T22:36:07.635Z,5.03
2018-04-26T22:38:33.907Z,2.90
2018-04-26T22:41:00.138Z,5.53
2018-04-26T22:43:26.530Z,3.20
2018-04-26T22:45:52.815Z,4.20
2018-04-26T22:48:19.042Z,6.67
2018-04-26T22:50:45.266Z,6.57
2018-04-26T22:53:11.540Z,7.30
2018-04-26T22:55:37.767Z,6.07
2018-04-26T22:58:04.024Z,4.20
2018-04-26T23:00:30.274Z,3.50
2018-04-26T23:02:56.501Z,3.20
2018-04-26T23:05:22.722Z,4.67
2018-04-26T23:07:48.971Z,3.60
2018-04-26T23:10:15.191Z,2.87
2018-04-26T23:12:41.418Z,4.47
2018-04-26T23:15:07.668Z,3.13
2018-04-26T23:17:33.898Z,6.57
2018-04-26T23:20:00.127Z,3.27
2018-04-26T23:22:26.471Z,4.43
2018-04-26T23:24:52.714Z,5.10
2018-04-26T23:27:18.936Z,4.10
2018-04-26T23:29:45.198Z,3.83
2018-04-26T23:32:11.424Z,5.27
2018-04-26T23:34:44.631Z,4.73
2018-04-26T23:37:10.854Z,6.13
2018-04-26T23:39:37.082Z,5.13
2018-04-26T23:42:03.342Z,4.67
2018-04-26T23:44:29.563Z,6.27
2018-04-26T23:46:55.794Z,5.27
2018-04-26T23:49:22.063Z,3.87
2018-04-26T23:51:48.282Z,5.53
2018-04-26T23:54:14.515Z,6.03
2018-04-26T23:56:40.795Z,4.87
2018-04-26T23:59:07.039Z,4.53
